Airfield :
LOGIN :

Register | Disclaimer

   EN    FR    IT 

 










Legend :    VFR   Marginal VFR   IFR   Intensive IFR   Very Intensive IFR
Visi :
Ceiling :
>= 8 km
>= 3000ft
5 to 8 km
1000 to 3000 ft
1500m to 5 km
500 to 1000 ft
800 to 1500m
200 to 500 ft
< 800m
< 200 ft
Symbols :   Thunderstorms  Fog  Heavy snow  Heavy precipitations  Wind > 20 kt
SIGMETs :     Misc.  Thunderstorms  Icing  Turbulence  Mountain Waves  Volcanic Ashes







- Airport Elevation : 1367 ft
- IATA code : FDH


EDNY - Friedrichshafen

CURRENT METAR :
  • 222350Z AUTO 26008KT 230V290 9999 BKN016 BKN035 OVC063 08/05 Q1020

EXPIRED METARs :
  • 222320Z AUTO 26009KT 9999 SCT016 BKN026 OVC036 08/05 Q1020
  • 222250Z AUTO 26006KT 220V300 9999 BKN016 BKN070 OVC100 08/05 Q1020
  • 222220Z AUTO 26007KT 230V320 9999 BKN017 BKN039 OVC094 08/05 Q1020
  • 222150Z AUTO 26005KT 230V300 9999 SCT017 BKN034 OVC044 08/05 Q1020
  • 222120Z AUTO 26007KT 230V310 9999 SCT017 SCT061 OVC072 08/05 Q1020

TAF TAF EDNY
Valid from the 23 at 00:00 until the 24 at 00:00 UTC


222300Z 2300/2324 25006KT 9999 SCT020 BKN035
PROB30
TEMPO 2300/2324 4500 SHRA BKN012 BKN020TCU
BECMG 2306/2308 25011KT
PROB30
TEMPO 2308/2317 28015G25KT
BECMG 2317/2319 25006KT
No reported NOTAMs for that airfield.



MET'MAP, your aeronautical weather chart ! - Copyright ORBIFLY December 2007 - Disclaimer

ORBIFLY MET'MAP TEAM :

Programming & Development : Alexandra Zaïnal
Concept & Development : Baudouin d'Aumeries
Co-Development & Prog : Marc-Olivier Méhu
Technical & hardware support : Manuel Goepfert

Contact : metmap@orbifly.com




SOURCES & CREDITS :

   NOAA